Time;durP1;ratioP1;P1;durP2;ratioP2;P2;SDS_P1;SDS_P2;PMS_P1;PMS_P2;Temp;Humidity;BMP_temperature;BMP_pressure;BME280_temperature;BME280_humidity;BME280_pressure;Samples;Min_cycle;Max_cycle;Signal;HPM_P1;HPM_P2
2023/11/24 00:00:12;;;;;;;2.88;2.00;;;5.70;99.90;;;;;;2092472;28;20176;-66
2023/11/24 00:01:13;;;;;;;6.72;2.05;;;5.60;99.90;;;;;;2079227;28;20308;-66
2023/11/24 00:02:14;;;;;;;2.77;2.37;;;5.50;99.90;;;;;;2081804;28;20238;-66
2023/11/24 00:03:15;;;;;;;3.33;2.23;;;5.50;99.90;;;;;;2094131;28;20287;-66
2023/11/24 00:04:15;;;;;;;4.13;2.80;;;5.40;99.90;;;;;;2083781;28;20236;-66
2023/11/24 00:05:16;;;;;;;2.23;2.03;;;5.40;99.90;;;;;;2087072;28;20224;-65
2023/11/24 00:06:17;;;;;;;4.67;2.70;;;5.40;99.90;;;;;;2088407;28;20228;-66
2023/11/24 00:07:18;;;;;;;3.70;2.37;;;5.50;99.90;;;;;;2089774;28;20259;-65
2023/11/24 00:08:18;;;;;;;3.43;2.27;;;5.40;99.90;;;;;;2078571;28;20231;-65
2023/11/24 00:09:19;;;;;;;2.83;2.33;;;5.30;99.90;;;;;;2078748;28;20238;-65
2023/11/24 00:10:20;;;;;;;3.10;2.43;;;5.30;99.90;;;;;;2080870;28;20224;-65
2023/11/24 00:11:20;;;;;;;3.43;2.63;;;5.40;99.90;;;;;;2086795;28;20230;-65
2023/11/24 00:12:21;;;;;;;3.30;1.97;;;5.40;99.90;;;;;;2094535;28;20717;-65
2023/11/24 00:13:22;;;;;;;5.57;2.50;;;5.40;99.90;;;;;;2095016;28;20230;-65
2023/11/24 00:14:22;;;;;;;3.20;2.03;;;5.50;99.90;;;;;;2094347;28;20296;-65
2023/11/24 00:15:24;;;;;;;6.03;2.40;;;5.50;99.90;;;;;;2085903;28;20233;-65
2023/11/24 00:16:25;;;;;;;2.40;2.17;;;5.40;99.90;;;;;;2090086;28;20246;-65
2023/11/24 00:17:25;;;;;;;3.13;2.30;;;5.40;99.90;;;;;;2087870;28;20232;-65
2023/11/24 00:18:27;;;;;;;2.13;1.93;;;5.40;99.90;;;;;;2094756;28;20306;-66
2023/11/24 00:19:28;;;;;;;2.55;2.10;;;5.40;99.90;;;;;;2091200;28;20754;-65
2023/11/24 00:20:29;;;;;;;3.20;2.40;;;5.50;99.90;;;;;;2090834;28;20224;-65
2023/11/24 00:21:30;;;;;;;3.55;2.03;;;5.40;99.90;;;;;;2090546;28;20226;-65
2023/11/24 00:22:31;;;;;;;2.27;1.90;;;5.40;99.90;;;;;;2086046;28;20243;-65
2023/11/24 00:23:33;;;;;;;3.47;2.00;;;5.40;99.90;;;;;;2093845;28;20239;-65
2023/11/24 00:24:34;;;;;;;3.65;2.08;;;5.50;99.90;;;;;;2096601;28;20254;-65
2023/11/24 00:25:35;;;;;;;2.00;1.80;;;5.50;99.90;;;;;;2094547;28;20273;-65
2023/11/24 00:26:36;;;;;;;2.10;1.90;;;5.60;99.90;;;;;;2086593;28;20304;-65
2023/11/24 00:27:37;;;;;;;6.67;3.30;;;5.60;99.90;;;;;;2086714;28;20230;-65
2023/11/24 00:28:39;;;;;;;4.63;3.03;;;5.50;99.90;;;;;;2093252;28;20231;-65
2023/11/24 00:29:41;;;;;;;2.28;2.05;;;5.60;99.90;;;;;;2095122;28;20548;-65
2023/11/24 00:30:42;;;;;;;2.92;1.80;;;5.60;99.90;;;;;;2094807;28;20289;-65
2023/11/24 00:31:43;;;;;;;2.65;2.20;;;5.60;99.90;;;;;;2094933;28;20235;-64
2023/11/24 00:32:45;;;;;;;3.40;1.98;;;5.50;99.90;;;;;;2093048;28;20259;-65
2023/11/24 00:33:47;;;;;;;3.45;1.90;;;5.60;99.90;;;;;;2092761;28;20620;-65
2023/11/24 00:34:48;;;;;;;2.03;1.83;;;5.60;99.90;;;;;;2093787;28;20290;-65
2023/11/24 00:35:49;;;;;;;2.00;1.60;;;5.60;99.90;;;;;;2086537;28;20751;-65
2023/11/24 00:36:50;;;;;;;2.22;1.60;;;5.60;99.90;;;;;;2078829;28;20659;-65
2023/11/24 00:37:51;;;;;;;2.60;1.83;;;5.70;99.90;;;;;;2078409;28;20237;-65
2023/11/24 00:38:51;;;;;;;2.20;1.67;;;5.70;99.90;;;;;;2086491;28;20461;-65
2023/11/24 00:39:52;;;;;;;2.10;1.60;;;5.70;99.90;;;;;;2086922;28;20216;-67
2023/11/24 00:40:53;;;;;;;4.37;1.93;;;5.70;99.90;;;;;;2070660;28;20186;-66
2023/11/24 00:41:53;;;;;;;2.70;1.60;;;5.70;99.90;;;;;;2071513;28;20571;-65
2023/11/24 00:42:55;;;;;;;2.23;1.60;;;5.80;99.90;;;;;;2086928;28;20227;-65
2023/11/24 00:43:55;;;;;;;3.03;1.98;;;5.80;99.90;;;;;;2088285;28;20277;-65
2023/11/24 00:44:56;;;;;;;3.60;2.10;;;5.80;99.90;;;;;;2096010;28;20199;-65
2023/11/24 00:45:57;;;;;;;2.73;1.93;;;5.80;99.90;;;;;;2086029;28;20620;-65
2023/11/24 00:46:57;;;;;;;2.63;2.00;;;5.80;99.90;;;;;;2090643;28;20188;-67
2023/11/24 00:47:58;;;;;;;2.70;1.47;;;5.80;99.90;;;;;;2096791;28;20178;-66
2023/11/24 00:48:59;;;;;;;2.37;1.87;;;5.70;99.90;;;;;;2093399;28;20559;-65
2023/11/24 00:49:59;;;;;;;3.03;2.00;;;5.60;99.90;;;;;;2086203;28;20281;-66
2023/11/24 00:51:00;;;;;;;3.03;1.80;;;5.70;99.90;;;;;;2088383;28;20192;-65
2023/11/24 00:52:02;;;;;;;2.67;1.60;;;5.70;99.90;;;;;;2096431;28;20184;-66
2023/11/24 00:53:03;;;;;;;2.03;1.80;;;5.70;99.90;;;;;;2095226;28;20226;-66
2023/11/24 00:54:04;;;;;;;4.70;1.98;;;5.70;99.90;;;;;;2087574;28;20204;-66
2023/11/24 00:55:05;;;;;;;1.50;1.33;;;5.80;99.90;;;;;;2088322;28;20214;-65
2023/11/24 00:56:06;;;;;;;1.42;1.33;;;5.80;99.90;;;;;;2102730;28;20186;-66
2023/11/24 00:57:07;;;;;;;2.33;1.17;;;5.80;99.90;;;;;;2093063;28;20182;-66
2023/11/24 00:58:08;;;;;;;2.20;1.70;;;5.80;99.90;;;;;;2094986;28;20206;-66
2023/11/24 00:59:10;;;;;;;1.42;1.33;;;5.70;99.90;;;;;;2096141;28;20214;-65
2023/11/24 01:00:12;;;;;;;1.92;1.40;;;5.70;99.90;;;;;;2096478;28;20183;-66
2023/11/24 01:01:12;;;;;;;1.70;1.60;;;5.60;99.90;;;;;;2093425;28;20617;-66
2023/11/24 01:02:13;;;;;;;1.70;1.40;;;5.70;99.90;;;;;;2081075;28;20244;-65
2023/11/24 01:03:15;;;;;;;4.00;1.70;;;5.60;99.90;;;;;;2072942;28;20256;-66
2023/11/24 01:04:16;;;;;;;3.15;1.40;;;5.60;99.90;;;;;;2083357;28;20232;-65
2023/11/24 01:05:19;;;;;;;2.75;1.42;;;5.70;99.90;;;;;;2085199;28;20231;-65
2023/11/24 01:06:20;;;;;;;1.75;1.35;;;5.70;99.90;;;;;;2085563;28;20312;-65
2023/11/24 01:07:20;;;;;;;3.00;1.60;;;5.60;99.90;;;;;;2085152;28;20607;-66
2023/11/24 01:08:21;;;;;;;1.97;1.50;;;5.60;99.90;;;;;;2078775;28;20220;-66
2023/11/24 01:09:21;;;;;;;1.33;1.23;;;5.60;99.90;;;;;;2082069;28;20232;-65
2023/11/24 01:10:22;;;;;;;1.80;1.30;;;5.60;99.90;;;;;;2095669;28;20223;-67
2023/11/24 01:11:23;;;;;;;3.37;1.47;;;5.60;99.90;;;;;;2083538;28;20706;-66
2023/11/24 01:12:24;;;;;;;2.17;1.47;;;5.60;99.90;;;;;;2078865;28;20225;-66
2023/11/24 01:13:24;;;;;;;1.23;1.13;;;5.60;99.90;;;;;;2085023;28;20252;-66
2023/11/24 01:14:25;;;;;;;1.33;1.17;;;5.60;99.90;;;;;;2085025;28;20228;-66
2023/11/24 01:15:26;;;;;;;1.30;1.17;;;5.70;99.90;;;;;;2087320;28;20236;-66
2023/11/24 01:16:26;;;;;;;1.37;1.20;;;5.70;99.90;;;;;;2092666;28;20722;-66
2023/11/24 01:17:27;;;;;;;1.10;1.00;;;5.70;99.90;;;;;;2096165;28;20231;-65
2023/11/24 01:18:29;;;;;;;3.07;1.57;;;5.60;99.90;;;;;;2080112;28;20334;-66
2023/11/24 01:19:29;;;;;;;1.30;1.20;;;5.70;99.90;;;;;;2079369;28;20245;-66
2023/11/24 01:20:30;;;;;;;2.20;1.60;;;5.70;99.90;;;;;;2086642;28;21244;-66
2023/11/24 01:21:31;;;;;;;2.17;1.47;;;5.70;99.90;;;;;;2093221;28;20232;-66
2023/11/24 01:22:32;;;;;;;1.77;1.08;;;5.70;99.90;;;;;;2096202;28;20697;-65
2023/11/24 01:23:35;;;;;;;1.10;1.00;;;5.70;99.90;;;;;;2081374;28;20285;-67
2023/11/24 01:24:35;;;;;;;0.90;0.90;;;5.70;99.90;;;;;;2080316;28;20244;-65
2023/11/24 01:25:36;;;;;;;2.33;0.93;;;5.70;99.90;;;;;;2095697;28;20242;-65
2023/11/24 01:26:37;;;;;;;1.10;1.00;;;5.80;99.90;;;;;;2089793;28;20235;-66
2023/11/24 01:27:38;;;;;;;1.13;0.83;;;5.70;99.90;;;;;;2087666;28;20477;-66
2023/11/24 01:28:39;;;;;;;1.20;1.10;;;5.70;99.90;;;;;;2087305;28;20303;-66
2023/11/24 01:29:39;;;;;;;1.07;0.97;;;5.70;99.90;;;;;;2079537;28;20626;-65
2023/11/24 01:30:40;;;;;;;1.13;0.90;;;5.70;99.90;;;;;;2092799;28;20231;-66
2023/11/24 01:31:41;;;;;;;1.40;1.05;;;5.70;99.90;;;;;;2091926;28;20614;-66
2023/11/24 01:32:42;;;;;;;1.47;1.20;;;5.70;99.90;;;;;;2083877;28;20239;-65
2023/11/24 01:33:42;;;;;;;1.30;1.10;;;5.70;99.90;;;;;;2087700;28;20626;-66
2023/11/24 01:34:44;;;;;;;1.30;1.20;;;5.70;99.90;;;;;;2087386;28;20231;-65
2023/11/24 01:35:44;;;;;;;1.25;1.13;;;5.70;99.90;;;;;;2080825;28;20259;-66
2023/11/24 01:36:45;;;;;;;1.17;1.00;;;5.80;99.90;;;;;;2080563;28;20238;-65
2023/11/24 01:37:46;;;;;;;1.17;1.00;;;5.70;99.90;;;;;;2083300;28;20263;-65
2023/11/24 01:38:48;;;;;;;1.87;1.00;;;5.70;99.90;;;;;;2077293;28;20248;-66
2023/11/24 01:39:49;;;;;;;1.98;1.00;;;5.70;99.90;;;;;;2095782;28;20219;-66
2023/11/24 01:40:51;;;;;;;1.73;1.10;;;5.60;99.90;;;;;;2093984;28;20728;-66
2023/11/24 01:41:51;;;;;;;1.20;1.10;;;5.60;99.90;;;;;;2091097;28;20245;-66
2023/11/24 01:42:52;;;;;;;1.03;1.00;;;5.70;99.90;;;;;;2091178;28;20652;-67
2023/11/24 01:43:58;;;;;;;2.07;1.00;;;5.60;99.90;;;;;;2086130;28;20197;-65
2023/11/24 01:44:59;;;;;;;1.30;1.10;;;5.60;99.90;;;;;;2085299;28;20639;-66
2023/11/24 01:46:00;;;;;;;1.42;1.33;;;5.60;99.90;;;;;;2102629;28;20638;-66
2023/11/24 01:47:01;;;;;;;2.10;1.43;;;5.60;99.90;;;;;;2087353;28;20200;-66
2023/11/24 01:48:02;;;;;;;1.53;1.43;;;5.50;99.90;;;;;;2087952;28;20800;-65
2023/11/24 01:49:04;;;;;;;1.65;1.10;;;5.50;99.90;;;;;;2080657;28;20212;-66
2023/11/24 01:50:07;;;;;;;1.10;1.00;;;5.40;99.90;;;;;;2094708;28;20176;-66
2023/11/24 01:51:08;;;;;;;2.08;1.52;;;5.40;99.90;;;;;;2084405;28;20176;-66
2023/11/24 01:52:09;;;;;;;1.23;1.00;;;5.40;99.90;;;;;;2087821;28;20191;-66
2023/11/24 01:53:10;;;;;;;1.10;1.00;;;5.40;99.90;;;;;;2093750;28;20190;-66
2023/11/24 01:54:11;;;;;;;1.10;1.00;;;5.40;99.90;;;;;;2088730;28;20230;-65
2023/11/24 01:55:13;;;;;;;2.97;1.20;;;5.40;99.90;;;;;;2085459;28;20500;-66
2023/11/24 01:56:14;;;;;;;1.33;1.00;;;5.50;99.90;;;;;;2079588;28;20264;-66
2023/11/24 01:57:16;;;;;;;1.40;1.13;;;5.50;99.90;;;;;;2082479;28;20229;-66
2023/11/24 01:58:17;;;;;;;1.23;1.10;;;5.40;99.90;;;;;;2087534;28;20844;-66
2023/11/24 01:59:19;;;;;;;1.43;1.20;;;5.40;99.90;;;;;;2087302;28;20233;-65
2023/11/24 02:00:20;;;;;;;1.83;1.08;;;5.40;99.90;;;;;;2090858;28;20460;-66
2023/11/24 02:01:24;;;;;;;1.48;1.17;;;5.40;99.90;;;;;;2078861;28;20767;-66
2023/11/24 02:02:28;;;;;;;1.88;1.13;;;5.40;99.90;;;;;;2070323;28;20808;-66
2023/11/24 02:03:29;;;;;;;1.45;1.27;;;5.30;99.90;;;;;;2079390;28;20229;-65
2023/11/24 02:04:30;;;;;;;1.95;1.02;;;5.40;99.90;;;;;;2089491;28;20987;-66
2023/11/24 02:05:31;;;;;;;1.80;1.27;;;5.40;99.90;;;;;;2077089;28;20240;-66
2023/11/24 02:06:32;;;;;;;1.40;1.30;;;5.40;99.90;;;;;;2075723;28;20313;-66
2023/11/24 02:07:33;;;;;;;0.80;0.80;;;5.50;99.90;;;;;;2078199;28;20233;-65
2023/11/24 02:08:34;;;;;;;1.10;1.00;;;5.50;99.90;;;;;;2093055;28;20226;-66
2023/11/24 02:09:35;;;;;;;1.15;0.95;;;5.50;99.90;;;;;;2093348;28;20258;-66
2023/11/24 02:10:36;;;;;;;1.02;0.93;;;5.50;99.90;;;;;;2095259;28;20261;-65
2023/11/24 02:11:37;;;;;;;1.35;1.00;;;5.50;99.90;;;;;;2094948;28;20236;-66
2023/11/24 02:12:38;;;;;;;1.50;1.10;;;5.50;99.90;;;;;;2086313;28;20611;-66
2023/11/24 02:13:39;;;;;;;1.42;1.00;;;5.40;99.90;;;;;;2082817;28;20227;-66
2023/11/24 02:14:39;;;;;;;1.43;0.90;;;5.40;99.90;;;;;;2074800;28;20606;-65
2023/11/24 02:15:40;;;;;;;1.10;0.80;;;5.40;99.90;;;;;;2076150;28;20311;-65
2023/11/24 02:16:41;;;;;;;0.80;0.80;;;5.40;99.90;;;;;;2086864;28;20239;-65
2023/11/24 02:17:41;;;;;;;0.70;0.63;;;5.40;99.90;;;;;;2081700;28;20219;-65
2023/11/24 02:18:43;;;;;;;3.33;0.80;;;5.40;99.90;;;;;;2077713;28;20235;-66
2023/11/24 02:19:44;;;;;;;0.90;0.80;;;5.40;99.90;;;;;;2078932;28;20618;-66
2023/11/24 02:20:45;;;;;;;2.08;0.90;;;5.40;99.90;;;;;;2086713;28;20228;-66
2023/11/24 02:21:46;;;;;;;0.90;0.90;;;5.40;99.90;;;;;;2086447;28;20235;-66
2023/11/24 02:22:47;;;;;;;0.70;0.70;;;5.40;99.90;;;;;;2078797;28;20262;-66
2023/11/24 02:23:49;;;;;;;1.70;0.80;;;5.40;99.90;;;;;;2084930;28;20252;-66
2023/11/24 02:24:51;;;;;;;1.35;0.80;;;5.40;99.90;;;;;;2093191;28;20289;-65
2023/11/24 02:25:52;;;;;;;0.70;0.70;;;5.40;99.90;;;;;;2093213;28;20238;-67
2023/11/24 02:26:53;;;;;;;0.80;0.80;;;5.40;99.90;;;;;;2094648;28;20179;-66
2023/11/24 02:27:54;;;;;;;1.33;0.90;;;5.40;99.90;;;;;;2095476;28;20233;-66
2023/11/24 02:28:55;;;;;;;0.80;0.80;;;5.50;99.90;;;;;;2079528;28;20609;-65
2023/11/24 02:29:56;;;;;;;1.10;1.00;;;5.50;99.90;;;;;;2087214;28;20173;-66
2023/11/24 02:31:00;;;;;;;0.70;0.70;;;5.50;99.90;;;;;;2093642;28;20187;-65
2023/11/24 02:32:01;;;;;;;0.70;0.70;;;5.50;99.90;;;;;;2087363;28;20567;-66
2023/11/24 02:33:03;;;;;;;1.20;1.00;;;5.60;99.90;;;;;;2082047;28;20182;-66
2023/11/24 02:34:04;;;;;;;1.90;0.80;;;5.70;99.90;;;;;;2081380;28;20192;-66
2023/11/24 02:35:05;;;;;;;0.70;0.70;;;5.70;99.90;;;;;;2081628;28;20708;-66
2023/11/24 02:36:08;;;;;;;0.70;0.70;;;5.70;99.90;;;;;;2079670;28;20744;-66
2023/11/24 02:37:09;;;;;;;1.10;0.60;;;5.70;99.90;;;;;;2087461;28;20314;-66
2023/11/24 02:38:10;;;;;;;0.70;0.70;;;5.60;99.90;;;;;;2089505;28;20222;-66
2023/11/24 02:39:12;;;;;;;0.50;0.50;;;5.50;99.90;;;;;;2087390;28;20202;-66
2023/11/24 02:40:13;;;;;;;0.75;0.60;;;5.50;99.90;;;;;;2095901;28;20680;-66
2023/11/24 02:41:18;;;;;;;0.70;0.70;;;5.50;99.90;;;;;;2096589;28;20344;-66
2023/11/24 02:42:19;;;;;;;0.98;0.80;;;5.50;99.90;;;;;;2093052;28;20232;-66
2023/11/24 02:43:19;;;;;;;0.90;0.70;;;5.50;99.90;;;;;;2095358;28;20648;-66
2023/11/24 02:44:20;;;;;;;1.07;0.80;;;5.50;99.90;;;;;;2093037;28;20223;-66
2023/11/24 02:45:21;;;;;;;0.70;0.70;;;5.50;99.90;;;;;;2081388;28;20842;-66
2023/11/24 02:46:22;;;;;;;1.73;0.80;;;5.50;99.90;;;;;;2074092;28;20558;-66
2023/11/24 02:47:22;;;;;;;0.73;0.70;;;5.50;99.90;;;;;;2081354;28;20229;-66
2023/11/24 02:48:23;;;;;;;0.70;0.70;;;5.60;99.90;;;;;;2082583;28;20238;-66
2023/11/24 02:49:24;;;;;;;1.30;1.20;;;5.60;99.90;;;;;;2070187;28;20734;-65
2023/11/24 02:50:25;;;;;;;1.30;0.80;;;5.50;99.90;;;;;;2077147;28;20253;-65
2023/11/24 02:51:25;;;;;;;0.80;0.80;;;5.50;99.90;;;;;;2085865;28;20220;-66
2023/11/24 02:52:26;;;;;;;0.80;0.80;;;5.50;99.90;;;;;;2091269;28;20220;-66
2023/11/24 02:53:26;;;;;;;1.33;0.97;;;5.50;99.90;;;;;;2094731;28;20246;-66
2023/11/24 02:54:28;;;;;;;1.87;1.20;;;5.50;99.90;;;;;;2088109;28;20377;-66
2023/11/24 02:55:29;;;;;;;1.88;0.82;;;5.40;99.90;;;;;;2089316;28;20242;-65
2023/11/24 02:56:30;;;;;;;1.40;1.07;;;5.40;99.90;;;;;;2086295;28;20227;-66
2023/11/24 02:57:30;;;;;;;1.03;0.83;;;5.40;99.90;;;;;;2080263;28;20267;-66
2023/11/24 02:58:32;;;;;;;0.80;0.80;;;5.40;99.90;;;;;;2086305;28;20371;-66
2023/11/24 02:59:34;;;;;;;2.53;1.40;;;5.50;99.90;;;;;;2077740;28;20239;-65
2023/11/24 03:00:36;;;;;;;0.82;0.82;;;5.50;99.90;;;;;;2079670;28;20310;-65
2023/11/24 03:01:36;;;;;;;1.35;0.80;;;5.50;99.90;;;;;;2085049;28;20817;-66
2023/11/24 03:02:37;;;;;;;1.43;1.00;;;5.50;99.90;;;;;;2091439;28;20352;-66
2023/11/24 03:03:38;;;;;;;1.00;0.80;;;5.50;99.90;;;;;;2094136;28;20223;-66
2023/11/24 03:04:38;;;;;;;0.93;0.83;;;5.50;99.90;;;;;;2086302;28;20247;-66
2023/11/24 03:05:39;;;;;;;1.20;0.90;;;5.50;99.90;;;;;;2090384;28;20224;-66
2023/11/24 03:06:42;;;;;;;0.83;0.80;;;5.60;99.90;;;;;;2090724;28;20228;-66
2023/11/24 03:07:42;;;;;;;1.45;0.85;;;5.50;99.90;;;;;;2086771;28;20270;-66
2023/11/24 03:08:44;;;;;;;1.00;0.90;;;5.50;99.90;;;;;;2087845;28;20642;-66
2023/11/24 03:09:45;;;;;;;1.10;1.00;;;5.60;99.90;;;;;;2081484;28;20691;-66
2023/11/24 03:10:47;;;;;;;1.10;0.98;;;5.60;99.90;;;;;;2083087;28;20232;-66
2023/11/24 03:11:47;;;;;;;1.92;0.90;;;5.60;99.90;;;;;;2086543;28;20285;-66
2023/11/24 03:12:48;;;;;;;1.63;0.80;;;5.60;99.90;;;;;;2086299;28;20228;-66
2023/11/24 03:13:49;;;;;;;1.70;0.73;;;5.60;99.90;;;;;;2094764;28;20228;-66
2023/11/24 03:14:51;;;;;;;1.87;0.87;;;5.60;99.90;;;;;;2084814;28;20220;-66
2023/11/24 03:15:52;;;;;;;1.05;0.95;;;5.50;99.90;;;;;;2086159;28;20216;-68
2023/11/24 03:16:53;;;;;;;1.37;0.97;;;5.50;99.90;;;;;;2086212;28;20191;-67
2023/11/24 03:17:53;;;;;;;2.77;0.73;;;5.50;99.90;;;;;;2094264;28;20646;-66
2023/11/24 03:18:55;;;;;;;0.80;0.80;;;5.60;99.90;;;;;;2093393;28;20270;-66
2023/11/24 03:19:56;;;;;;;0.70;0.60;;;5.50;99.90;;;;;;2084299;28;20557;-66
2023/11/24 03:20:57;;;;;;;2.35;0.90;;;5.50;99.90;;;;;;2090896;28;20176;-66
2023/11/24 03:21:58;;;;;;;0.93;0.80;;;5.50;99.90;;;;;;2075671;28;20209;-66
2023/11/24 03:22:59;;;;;;;0.77;0.77;;;5.50;99.90;;;;;;2071392;28;20655;-66
2023/11/24 03:23:59;;;;;;;0.90;0.60;;;5.50;99.90;;;;;;2080428;28;20200;-66
2023/11/24 03:25:00;;;;;;;2.40;0.70;;;5.50;99.90;;;;;;2085526;28;20199;-67
2023/11/24 03:26:02;;;;;;;1.03;0.60;;;5.50;99.90;;;;;;2088463;28;20196;-67
2023/11/24 03:27:03;;;;;;;1.35;0.57;;;5.50;99.90;;;;;;2093329;28;20184;-66
2023/11/24 03:28:03;;;;;;;1.73;0.67;;;5.50;99.90;;;;;;2086782;28;20184;-66
2023/11/24 03:29:05;;;;;;;0.40;0.40;;;5.50;99.90;;;;;;2088945;28;20709;-66
2023/11/24 03:30:06;;;;;;;0.50;0.40;;;5.50;99.90;;;;;;2085226;28;20559;-66
2023/11/24 03:31:07;;;;;;;0.55;0.55;;;5.50;99.90;;;;;;2086490;28;20670;-66
2023/11/24 03:32:07;;;;;;;0.50;0.40;;;5.60;99.90;;;;;;2096769;28;20185;-66
2023/11/24 03:33:09;;;;;;;0.50;0.50;;;5.60;99.90;;;;;;2093831;28;20266;-66
2023/11/24 03:34:10;;;;;;;1.27;0.50;;;5.60;99.90;;;;;;2085398;28;20183;-66
2023/11/24 03:35:11;;;;;;;1.80;0.40;;;5.60;99.90;;;;;;2078015;28;20235;-66
2023/11/24 03:36:12;;;;;;;0.70;0.50;;;5.60;99.90;;;;;;2086023;28;20242;-66
2023/11/24 03:37:12;;;;;;;1.20;0.50;;;5.60;99.90;;;;;;2076355;28;21327;-66
2023/11/24 03:38:13;;;;;;;0.40;0.40;;;5.50;99.90;;;;;;2080539;28;20236;-66
2023/11/24 03:39:14;;;;;;;0.37;0.37;;;5.40;99.90;;;;;;2088502;28;20235;-65
2023/11/24 03:40:16;;;;;;;0.30;0.30;;;5.40;99.90;;;;;;2080195;28;20239;-65
2023/11/24 03:41:16;;;;;;;0.30;0.30;;;5.40;99.90;;;;;;2080949;28;20328;-64
2023/11/24 03:42:19;;;;;;;1.13;0.40;;;5.50;99.90;;;;;;2082896;28;20225;-64
2023/11/24 03:43:20;;;;;;;0.30;0.30;;;5.50;99.90;;;;;;2085746;28;20568;-64
2023/11/24 03:44:20;;;;;;;0.40;0.40;;;5.60;99.90;;;;;;2086226;28;20238;-64
2023/11/24 03:45:21;;;;;;;0.80;0.60;;;5.60;99.90;;;;;;2078441;28;20233;-64
2023/11/24 03:46:22;;;;;;;0.63;0.40;;;5.60;99.90;;;;;;2078157;28;20234;-64
2023/11/24 03:47:23;;;;;;;1.40;1.00;;;5.60;99.90;;;;;;2091490;28;20317;-65
2023/11/24 03:48:24;;;;;;;2.25;1.00;;;5.70;99.90;;;;;;2087565;28;20625;-65
2023/11/24 03:49:24;;;;;;;0.50;0.50;;;5.60;99.90;;;;;;2093208;28;20258;-65
2023/11/24 03:50:25;;;;;;;0.63;0.50;;;5.50;99.90;;;;;;2094100;28;20223;-65
2023/11/24 03:51:26;;;;;;;0.57;0.43;;;5.50;99.90;;;;;;2091833;28;20239;-66
2023/11/24 03:52:27;;;;;;;1.23;0.40;;;5.50;99.90;;;;;;2094972;28;20477;-65
2023/11/24 03:53:28;;;;;;;1.67;0.73;;;5.50;99.90;;;;;;2094599;28;20235;-65
2023/11/24 03:54:29;;;;;;;0.60;0.60;;;5.50;99.90;;;;;;2094552;28;20602;-65
2023/11/24 03:55:29;;;;;;;0.40;0.40;;;5.60;99.90;;;;;;2094619;28;20235;-65
2023/11/24 03:56:30;;;;;;;0.37;0.37;;;5.50;99.90;;;;;;2086132;28;20848;-65
2023/11/24 03:57:32;;;;;;;0.68;0.35;;;5.60;99.90;;;;;;2081197;28;20607;-65
2023/11/24 03:58:33;;;;;;;0.35;0.35;;;5.60;99.90;;;;;;2078213;28;20227;-65
2023/11/24 03:59:33;;;;;;;0.40;0.40;;;5.50;99.90;;;;;;2084979;28;20269;-65
2023/11/24 04:00:35;;;;;;;2.07;0.40;;;5.60;99.90;;;;;;2087010;28;20231;-64
2023/11/24 04:01:36;;;;;;;0.50;0.50;;;5.50;99.90;;;;;;2085918;28;20257;-66
2023/11/24 04:02:36;;;;;;;0.40;0.30;;;5.50;99.90;;;;;;2089987;28;20223;-65
2023/11/24 04:03:37;;;;;;;0.40;0.40;;;5.50;99.90;;;;;;2091392;28;20227;-65
2023/11/24 04:04:38;;;;;;;0.40;0.40;;;5.40;99.90;;;;;;2079600;28;20641;-66
2023/11/24 04:05:38;;;;;;;0.50;0.50;;;5.50;99.90;;;;;;2091461;28;20228;-66
2023/11/24 04:06:39;;;;;;;0.40;0.40;;;5.50;99.90;;;;;;2099961;28;20226;-66
2023/11/24 04:07:40;;;;;;;0.40;0.40;;;5.50;99.90;;;;;;2091433;28;20835;-66
2023/11/24 04:08:41;;;;;;;0.30;0.30;;;5.50;99.90;;;;;;2095384;28;20231;-66
2023/11/24 04:09:42;;;;;;;0.30;0.30;;;5.50;99.90;;;;;;2078877;28;20240;-66
2023/11/24 04:10:43;;;;;;;0.30;0.30;;;5.50;99.90;;;;;;2084833;28;20469;-66
2023/11/24 04:11:43;;;;;;;0.30;0.30;;;5.50;99.90;;;;;;2088186;28;20258;-66
2023/11/24 04:12:45;;;;;;;0.40;0.40;;;5.60;99.90;;;;;;2082530;28;20365;-66
2023/11/24 04:13:45;;;;;;;0.40;0.40;;;5.60;99.90;;;;;;2080792;28;20221;-66
2023/11/24 04:14:47;;;;;;;0.30;0.30;;;5.60;99.90;;;;;;2085165;28;20223;-66
2023/11/24 04:15:48;;;;;;;0.50;0.50;;;5.60;99.90;;;;;;2094502;28;20657;-65
2023/11/24 04:16:49;;;;;;;0.50;0.30;;;5.60;99.90;;;;;;2093884;28;20719;-66
2023/11/24 04:17:49;;;;;;;0.60;0.60;;;5.60;99.90;;;;;;2090515;28;20229;-65
2023/11/24 04:18:50;;;;;;;0.30;0.30;;;5.50;99.90;;;;;;2097071;28;20737;-66
2023/11/24 04:19:51;;;;;;;0.30;0.30;;;5.60;99.90;;;;;;2095760;28;20234;-66
2023/11/24 04:20:52;;;;;;;0.37;0.37;;;5.50;99.90;;;;;;2095471;28;20223;-67
2023/11/24 04:21:52;;;;;;;0.90;0.60;;;5.50;99.90;;;;;;2093648;28;20184;-67
2023/11/24 04:22:53;;;;;;;0.30;0.30;;;5.60;99.90;;;;;;2095989;28;20215;-65
2023/11/24 04:23:54;;;;;;;1.50;0.40;;;5.60;99.90;;;;;;2095943;28;20651;-66
2023/11/24 04:24:54;;;;;;;0.30;0.30;;;5.60;99.90;;;;;;2095897;28;20266;-65
2023/11/24 04:25:55;;;;;;;0.40;0.40;;;5.60;99.90;;;;;;2092268;28;20191;-66
2023/11/24 04:26:56;;;;;;;0.30;0.30;;;5.50;99.90;;;;;;2088511;28;20272;-65
2023/11/24 04:27:56;;;;;;;0.30;0.30;;;5.60;99.90;;;;;;2085179;28;20243;-65
2023/11/24 04:28:57;;;;;;;0.20;0.20;;;5.60;99.90;;;;;;2086424;28;20204;-65
2023/11/24 04:29:58;;;;;;;0.30;0.30;;;5.70;99.90;;;;;;2084513;28;20600;-66
2023/11/24 04:30:58;;;;;;;0.30;0.30;;;5.60;99.90;;;;;;2080231;28;20189;-65
2023/11/24 04:31:59;;;;;;;0.30;0.30;;;5.60;99.90;;;;;;2088338;28;20208;-65
2023/11/24 04:33:02;;;;;;;0.50;0.50;;;5.60;99.90;;;;;;2085806;28;20175;-66
2023/11/24 04:34:03;;;;;;;0.32;0.32;;;5.70;99.90;;;;;;2084483;28;20226;-65
2023/11/24 04:35:05;;;;;;;0.20;0.20;;;5.70;99.90;;;;;;2095777;28;20290;-65
2023/11/24 04:36:07;;;;;;;0.35;0.35;;;5.70;99.90;;;;;;2095963;28;20183;-66
2023/11/24 04:37:08;;;;;;;0.35;0.35;;;5.70;99.90;;;;;;2088444;28;20188;-66
2023/11/24 04:38:09;;;;;;;0.30;0.30;;;5.70;99.90;;;;;;2095594;28;20658;-65
2023/11/24 04:39:10;;;;;;;0.35;0.35;;;5.80;99.90;;;;;;2090853;28;20196;-66
2023/11/24 04:40:11;;;;;;;1.53;0.77;;;5.80;99.90;;;;;;2094494;28;20179;-66
2023/11/24 04:41:13;;;;;;;0.90;0.80;;;5.70;99.90;;;;;;2094448;28;20261;-66
2023/11/24 04:42:15;;;;;;;0.40;0.40;;;5.60;99.90;;;;;;2093491;28;20229;-66
2023/11/24 04:43:16;;;;;;;0.80;0.80;;;5.60;99.90;;;;;;2093729;28;20227;-65
2023/11/24 04:44:16;;;;;;;0.60;0.50;;;5.60;99.90;;;;;;2094762;28;20778;-65
2023/11/24 04:45:17;;;;;;;0.90;0.80;;;5.60;99.90;;;;;;2093650;28;20227;-65
2023/11/24 04:46:18;;;;;;;1.27;0.90;;;5.50;99.90;;;;;;2083147;28;20228;-66
2023/11/24 04:47:20;;;;;;;0.40;0.40;;;5.50;99.90;;;;;;2093618;28;20235;-69
2023/11/24 04:48:21;;;;;;;0.52;0.52;;;5.50;99.90;;;;;;2091337;28;20223;-65
2023/11/24 04:49:22;;;;;;;0.50;0.50;;;5.40;99.90;;;;;;2093410;28;20239;-65
2023/11/24 04:50:22;;;;;;;1.65;0.40;;;5.50;99.90;;;;;;2092336;28;20255;-65
2023/11/24 04:51:23;;;;;;;0.30;0.30;;;5.50;99.90;;;;;;2094159;28;20232;-65
2023/11/24 04:52:24;;;;;;;0.30;0.30;;;5.50;99.90;;;;;;2086011;28;20229;-65
2023/11/24 04:53:24;;;;;;;0.30;0.30;;;5.50;99.90;;;;;;2086726;28;20315;-65
2023/11/24 04:54:25;;;;;;;0.50;0.50;;;5.50;99.90;;;;;;2091193;28;20230;-66
2023/11/24 04:55:26;;;;;;;0.40;0.40;;;5.60;99.90;;;;;;2078638;28;20290;-66
2023/11/24 04:56:27;;;;;;;0.40;0.40;;;5.60;99.90;;;;;;2080459;28;20243;-65
2023/11/24 04:57:27;;;;;;;0.43;0.43;;;5.50;99.90;;;;;;2088360;28;20299;-65
2023/11/24 04:58:29;;;;;;;1.13;0.43;;;5.60;99.90;;;;;;2085666;28;20733;-65
2023/11/24 04:59:31;;;;;;;0.85;0.40;;;5.50;99.90;;;;;;2084406;28;20244;-65
2023/11/24 05:00:32;;;;;;;1.00;0.80;;;5.60;99.90;;;;;;2086315;28;20233;-65
2023/11/24 05:01:33;;;;;;;0.50;0.50;;;5.60;99.90;;;;;;2085445;28;20232;-65
2023/11/24 05:02:34;;;;;;;0.70;0.70;;;5.60;99.90;;;;;;2079697;28;20237;-65
2023/11/24 05:03:34;;;;;;;0.45;0.45;;;5.60;99.90;;;;;;2084419;28;20224;-65
2023/11/24 05:04:39;;;;;;;0.37;0.37;;;5.60;99.90;;;;;;2086880;28;20232;-65
2023/11/24 05:05:39;;;;;;;0.63;0.40;;;5.60;99.90;;;;;;2083655;28;20245;-66
2023/11/24 05:06:41;;;;;;;0.40;0.40;;;5.70;99.90;;;;;;2082855;28;20279;-65
2023/11/24 05:07:41;;;;;;;0.40;0.40;;;5.60;99.90;;;;;;2082379;28;20236;-66
2023/11/24 05:08:42;;;;;;;0.40;0.40;;;5.70;99.90;;;;;;2087828;28;20592;-65
2023/11/24 05:09:44;;;;;;;0.43;0.43;;;5.70;99.90;;;;;;2093036;28;20423;-65
2023/11/24 05:10:45;;;;;;;0.50;0.50;;;5.70;99.90;;;;;;2086982;28;20375;-65
2023/11/24 05:11:45;;;;;;;0.43;0.43;;;5.70;99.90;;;;;;2081985;28;20228;-66
2023/11/24 05:12:46;;;;;;;0.30;0.30;;;5.70;99.90;;;;;;2084306;28;20576;-66
2023/11/24 05:13:49;;;;;;;0.50;0.50;;;5.70;99.90;;;;;;2084930;28;20311;-65
2023/11/24 05:14:51;;;;;;;0.60;0.60;;;5.70;99.90;;;;;;2079182;28;20234;-66
2023/11/24 05:15:52;;;;;;;0.73;0.73;;;5.60;99.90;;;;;;2086872;28;20235;-68
2023/11/24 05:16:52;;;;;;;0.60;0.60;;;5.70;99.90;;;;;;2086674;28;20210;-66
2023/11/24 05:17:53;;;;;;;0.70;0.67;;;5.70;99.90;;;;;;2080569;28;20243;-65
2023/11/24 05:18:54;;;;;;;0.50;0.50;;;5.70;99.90;;;;;;2084824;28;20196;-66
2023/11/24 05:19:54;;;;;;;0.70;0.60;;;5.80;99.90;;;;;;2094077;28;20266;-66
2023/11/24 05:20:55;;;;;;;0.50;0.50;;;5.80;99.90;;;;;;2093366;28;20191;-66
2023/11/24 05:21:56;;;;;;;0.40;0.40;;;5.80;99.90;;;;;;2086848;28;20188;-65